Open Full Screen Window  High Contrast Mode
July 23, 2016 6:01 AM CDT
Present Weather: Mist
Weather Information
Wind Direction
  ---
Wind Speed
  00 kt (0 mph)
Wind Gust
  00 kt (0 mph)
Altimeter
30.03 in
Visibility
3 SM
Temperature
20° C
68° F
Dewpoint
20° C
68° F
Humidity
100%
Sky Condition
Clear
MVFR

METAR KAXV 231101Z AUTO 00000KT 3SM BR CLR 20/20 A3003 RMK AO2

*Background is not an actual portrayal of the airport.